Time;durP1;ratioP1;P1;durP2;ratioP2;P2;SDS_P1;SDS_P2;PMS_P1;PMS_P2;Temp;Humidity;BMP_temperature;BMP_pressure;BME280_temperature;BME280_humidity;BME280_pressure;Samples;Min_cycle;Max_cycle;Signal;HPM_P1;HPM_P2
2023/06/02 00:01:24;;;;;;;2.72;1.33;;;;;;;12.80;68.93;102099.69;4961847;28;20033;-57
2023/06/02 00:03:53;;;;;;;3.08;1.30;;;;;;;12.75;69.03;102094.31;5251371;23;20026;-57
2023/06/02 00:08:49;;;;;;;3.15;1.52;;;;;;;12.62;68.76;102097.31;5178835;23;21575;-57
2023/06/02 00:11:14;;;;;;;2.72;1.30;;;;;;;12.47;69.18;102097.66;5104541;23;20046;-57
2023/06/02 00:13:40;;;;;;;3.55;1.40;;;;;;;12.38;69.85;102095.59;5342308;23;20029;-57
2023/06/02 00:18:52;;;;;;;3.38;1.55;;;;;;;12.29;69.58;102090.03;5077969;23;1166444;31
2023/06/02 00:21:18;;;;;;;2.53;1.40;;;;;;;12.25;69.36;102093.38;5160730;23;20060;-57
2023/06/02 00:23:44;;;;;;;2.70;1.70;;;;;;;12.23;69.19;102089.84;5100516;23;20058;-57
2023/06/02 00:31:20;;;;;;;3.55;1.30;;;;;;;12.23;69.92;102095.06;5069575;23;20066;-56
2023/06/02 00:33:45;;;;;;;4.18;1.52;;;;;;;12.15;69.18;102089.53;5290420;23;20067;-57
2023/06/02 00:38:46;;;;;;;2.80;1.35;;;;;;;12.03;69.60;102089.97;5130002;23;20055;-56
2023/06/02 00:41:11;;;;;;;3.03;1.40;;;;;;;11.99;68.51;102083.75;5148079;23;20557;-57
2023/06/02 00:43:36;;;;;;;2.88;1.48;;;;;;;11.88;69.31;102082.41;5198613;23;20091;-57
2023/06/02 00:46:02;;;;;;;3.75;1.50;;;;;;;11.86;69.08;102088.41;5381331;23;20034;-56
2023/06/02 00:48:27;;;;;;;3.85;1.50;;;;;;;11.86;69.19;102089.31;5100657;23;20051;-57
2023/06/02 00:50:53;;;;;;;3.03;1.55;;;;;;;11.82;68.12;102087.41;4960631;28;20022;-57
2023/06/02 00:53:19;;;;;;;3.72;1.55;;;;;;;11.76;68.60;102080.22;4961483;28;20270;-56
2023/06/02 00:58:16;;;;;;;3.70;1.65;;;;;;;11.76;69.01;102082.84;5070007;23;20061;-56
2023/06/02 01:03:14;;;;;;;4.95;1.63;;;;;;;11.89;68.46;102088.50;5066011;23;20535;-57
2023/06/02 01:05:40;;;;;;;3.67;1.65;;;;;;;11.83;69.73;102097.91;5038334;23;20418;-57
2023/06/02 01:08:07;;;;;;;4.32;1.60;;;;;;;11.84;67.50;102093.56;5094098;23;20210;-56
2023/06/02 01:10:35;;;;;;;3.70;1.55;;;;;;;11.80;68.23;102102.09;5163981;23;20164;-56
2023/06/02 01:13:01;;;;;;;3.90;1.67;;;;;;;11.74;66.31;102100.16;5354280;23;20154;-57
2023/06/02 01:15:27;;;;;;;3.85;1.52;;;;;;;11.72;67.07;102090.50;5245032;23;20082;-57
2023/06/02 01:17:54;;;;;;;5.05;1.95;;;;;;;11.79;67.71;102098.63;4977152;28;20038;-56
2023/06/02 01:20:23;;;;;;;3.58;1.77;;;;;;;11.88;68.28;102099.81;4975715;28;20038;-56
2023/06/02 01:25:28;;;;;;;3.65;1.50;;;;;;;11.88;67.96;102092.84;5217501;23;20105;-56
2023/06/02 01:27:58;;;;;;;4.13;1.85;;;;;;;11.91;68.04;102094.69;5109563;23;20826;-57
2023/06/02 01:30:25;;;;;;;4.07;1.88;;;;;;;11.78;67.19;102102.06;5136263;23;20525;-56
2023/06/02 01:35:30;;;;;;;3.83;1.70;;;;;;;11.79;67.09;102097.75;5320414;23;20058;-57
2023/06/02 01:40:27;;;;;;;3.53;1.30;;;;;;;11.76;65.71;102095.88;5057763;23;20061;-57
2023/06/02 01:42:53;;;;;;;3.70;1.63;;;;;;;11.69;67.69;102086.03;5277760;23;20025;-57
2023/06/02 01:45:20;;;;;;;3.53;1.65;;;;;;;11.68;67.29;102093.81;4956386;28;20108;-57
2023/06/02 01:47:45;;;;;;;3.50;1.58;;;;;;;11.61;67.32;102090.94;5136592;23;20197;-56
2023/06/02 01:50:11;;;;;;;3.22;1.40;;;;;;;11.69;67.14;102088.66;5341624;23;20146;-57
2023/06/02 01:52:36;;;;;;;3.38;1.40;;;;;;;11.73;66.68;102087.94;5104114;23;20252;-57
2023/06/02 01:55:02;;;;;;;4.97;1.50;;;;;;;11.76;67.95;102084.53;5139535;23;20055;-57
2023/06/02 01:57:28;;;;;;;4.43;1.80;;;;;;;11.82;68.86;102090.03;5355582;23;20097;-57
2023/06/02 02:02:29;;;;;;;3.30;1.50;;;;;;;11.79;68.25;102087.28;5155321;23;20035;-57
2023/06/02 02:04:54;;;;;;;3.90;1.50;;;;;;;11.77;67.31;102083.72;5343844;23;20017;-57
2023/06/02 02:07:19;;;;;;;3.35;1.20;;;;;;;11.73;66.66;102084.41;5370150;23;20056;-56
2023/06/02 02:09:46;;;;;;;3.45;1.67;;;;;;;11.70;67.36;102084.31;5160450;23;20054;-56
2023/06/02 02:12:11;;;;;;;3.28;1.40;;;;;;;11.65;67.25;102087.63;4950131;28;20027;-57
2023/06/02 02:14:37;;;;;;;2.88;1.38;;;;;;;11.62;68.43;102094.47;5329853;23;20036;-57
2023/06/02 02:17:02;;;;;;;4.10;1.60;;;;;;;11.64;69.08;102085.88;5086170;23;20045;-56
2023/06/02 02:19:31;;;;;;;4.80;1.40;;;;;;;11.72;68.58;102086.16;5109606;23;20434;-57
2023/06/02 02:24:31;;;;;;;2.45;1.25;;;;;;;11.74;68.80;102083.59;5247480;23;20066;-58
2023/06/02 02:26:57;;;;;;;5.10;1.70;;;;;;;11.71;68.13;102088.72;5176024;23;20058;-57
2023/06/02 02:31:54;;;;;;;3.60;1.60;;;;;;;11.69;68.10;102087.75;5310309;23;20029;-57
2023/06/02 02:34:19;;;;;;;4.30;1.40;;;;;;;11.72;69.16;102078.31;5041590;23;20531;-57
2023/06/02 02:36:45;;;;;;;3.95;1.50;;;;;;;11.75;68.94;102085.38;5287900;23;20335;-57
2023/06/02 02:41:41;;;;;;;3.05;1.48;;;;;;;11.58;67.75;102077.78;5046862;23;20430;-57
2023/06/02 02:44:07;;;;;;;4.32;1.58;;;;;;;11.55;68.46;102077.66;5103138;23;20063;-57
2023/06/02 02:46:32;;;;;;;3.67;1.40;;;;;;;11.58;69.21;102076.88;5257629;23;20489;-57
2023/06/02 02:48:58;;;;;;;4.00;1.70;;;;;;;11.63;69.11;102072.75;5400249;23;20867;-56
2023/06/02 02:53:54;;;;;;;2.85;1.50;;;;;;;11.65;69.02;102074.56;5061306;23;20066;-56
2023/06/02 02:58:49;;;;;;;3.05;1.50;;;;;;;11.60;70.24;102075.22;5181883;23;20054;-57
2023/06/02 03:01:47;;;;;;;4.20;1.53;;;;;;;11.62;70.19;102074.44;5021320;23;20126;31
2023/06/02 03:04:21;;;;;;;3.63;1.42;;;;;;;11.64;69.86;102078.03;4936468;28;20299;-57
2023/06/02 03:06:52;;;;;;;4.18;1.85;;;;;;;11.61;69.86;102077.00;5365280;23;20131;-57
2023/06/02 03:09:18;;;;;;;3.22;1.60;;;;;;;11.52;70.07;102076.66;5164116;23;20055;-57
2023/06/02 03:14:18;;;;;;;3.67;1.83;;;;;;;11.34;70.13;102077.69;5156024;23;20025;-57
2023/06/02 03:19:24;;;;;;;4.53;1.85;;;;;;;11.24;70.08;102086.88;5229907;23;20458;-56
2023/06/02 03:21:51;;;;;;;3.90;1.60;;;;;;;11.16;70.63;102092.59;5097661;23;20066;-57
2023/06/02 03:26:46;;;;;;;5.80;1.77;;;;;;;11.12;71.33;102086.34;5244893;23;20057;-56
2023/06/02 03:29:12;;;;;;;4.38;1.80;;;;;;;11.20;70.24;102092.78;5082880;23;20431;-57
2023/06/02 03:31:40;;;;;;;4.22;1.70;;;;;;;11.21;70.21;102104.09;5127817;23;20101;-57
2023/06/02 03:34:06;;;;;;;2.88;1.52;;;;;;;11.20;70.01;102095.41;4978810;28;20036;-57
2023/06/02 03:39:09;;;;;;;4.25;1.45;;;;;;;11.21;69.46;102099.78;5034744;23;20130;-56
2023/06/02 03:41:35;;;;;;;4.40;1.55;;;;;;;11.20;68.49;102100.59;5130631;23;20067;-57
2023/06/02 03:44:02;;;;;;;3.20;1.60;;;;;;;11.23;69.55;102098.13;5146790;23;20121;-57
2023/06/02 03:49:03;;;;;;;3.22;1.50;;;;;;;11.22;68.89;102098.06;5240225;23;20021;-57
2023/06/02 03:51:29;;;;;;;3.45;1.40;;;;;;;11.20;68.79;102099.72;5094956;23;20062;-56
2023/06/02 03:53:54;;;;;;;5.65;1.70;;;;;;;11.19;69.12;102104.03;5101409;23;20565;-63
2023/06/02 03:58:51;;;;;;;4.20;1.60;;;;;;;11.20;70.04;102102.34;5184261;23;20051;-57
2023/06/02 04:03:42;;;;;;;3.95;1.50;;;;;;;11.25;68.79;102108.63;5222179;23;20423;-62
2023/06/02 04:06:08;;;;;;;4.57;1.80;;;;;;;11.26;68.89;102108.69;5052064;23;20090;-62
2023/06/02 04:08:33;;;;;;;2.78;1.52;;;;;;;11.20;69.92;102111.03;5067954;23;20526;-57
2023/06/02 04:10:59;;;;;;;3.60;1.48;;;;;;;11.14;69.67;102116.03;5355883;23;20101;-57
2023/06/02 04:13:24;;;;;;;5.18;1.58;;;;;;;11.11;68.97;102115.91;5106888;23;20061;-57
2023/06/02 04:15:50;;;;;;;3.00;1.30;;;;;;;11.12;69.18;102121.19;4941615;28;20034;-56
2023/06/02 04:18:15;;;;;;;5.88;1.55;;;;;;;11.07;69.34;102113.97;4944037;28;20117;-62
2023/06/02 04:20:41;;;;;;;4.82;1.48;;;;;;;11.03;69.21;102109.47;5083743;23;20057;-56
2023/06/02 04:23:06;;;;;;;2.75;1.30;;;;;;;10.93;69.21;102114.28;5040020;23;20266;-57
2023/06/02 04:25:32;;;;;;;3.88;1.42;;;;;;;10.88;69.98;102117.53;5239370;23;20062;-57
2023/06/02 04:30:28;;;;;;;3.40;1.45;;;;;;;10.90;69.71;102110.66;5048770;23;20062;-57
2023/06/02 04:32:53;;;;;;;3.20;1.55;;;;;;;10.94;70.11;102109.97;5139210;23;20184;-57
2023/06/02 04:35:19;;;;;;;4.30;1.58;;;;;;;10.97;69.43;102110.09;4944293;28;20134;-56
2023/06/02 04:37:46;;;;;;;3.33;1.40;;;;;;;10.97;69.87;102104.88;4942048;28;20182;-56
2023/06/02 04:40:12;;;;;;;4.32;1.48;;;;;;;10.92;70.12;102112.50;5151657;23;1114892;-57
2023/06/02 04:42:38;;;;;;;2.67;1.30;;;;;;;10.86;70.52;102112.25;5042684;23;20054;-57
2023/06/02 04:45:13;;;;;;;2.10;1.27;;;;;;;10.86;69.30;102106.13;5396506;23;20082;-56
2023/06/02 04:52:44;;;;;;;2.78;1.50;;;;;;;11.00;69.52;102122.38;5256747;23;21152;-57
2023/06/02 04:57:45;;;;;;;4.35;1.25;;;;;;;10.96;69.65;102123.94;5339125;23;20029;-57
2023/06/02 05:00:12;;;;;;;3.88;1.20;;;;;;;10.99;67.65;102120.56;4979066;28;20026;-57
2023/06/02 05:02:37;;;;;;;2.60;1.30;;;;;;;10.92;68.55;102125.53;5139100;23;20047;-56
2023/06/02 05:05:05;;;;;;;2.58;1.20;;;;;;;10.91;68.18;102125.47;4980113;28;20053;-57
2023/06/02 05:07:30;;;;;;;2.55;1.20;;;;;;;10.95;68.59;102122.19;5216545;23;20054;-62
2023/06/02 05:09:55;;;;;;;3.80;1.40;;;;;;;10.96;68.61;102132.69;5202484;23;20970;-57
2023/06/02 05:12:21;;;;;;;3.55;1.35;;;;;;;10.95;68.89;102125.66;5359587;23;20536;-58
2023/06/02 05:14:46;;;;;;;2.40;1.13;;;;;;;10.97;67.92;102136.16;5252080;23;20050;-57
2023/06/02 05:17:12;;;;;;;3.42;1.10;;;;;;;10.95;68.68;102135.22;5143439;23;20082;-56
2023/06/02 05:19:41;;;;;;;3.72;1.20;;;;;;;11.01;68.92;102140.69;5182194;23;20059;-57
2023/06/02 05:22:07;;;;;;;2.28;1.15;;;;;;;11.05;69.69;102136.47;5250203;23;20050;-57
2023/06/02 05:24:32;;;;;;;3.78;1.15;;;;;;;11.08;68.86;102131.38;5204040;23;20070;-57
2023/06/02 05:26:57;;;;;;;3.20;1.15;;;;;;;11.14;69.32;102135.16;5218520;23;20058;-57
2023/06/02 05:29:22;;;;;;;4.78;1.23;;;;;;;11.16;69.83;102137.81;5153988;23;20062;-56
2023/06/02 05:31:48;;;;;;;3.22;1.30;;;;;;;11.18;68.67;102141.41;5132460;23;20120;-57
2023/06/02 05:39:14;;;;;;;3.38;1.17;;;;;;;11.27;68.33;102144.41;5223370;23;20062;-62
2023/06/02 05:41:40;;;;;;;4.10;1.40;;;;;;;11.35;69.73;102133.38;5311476;23;20069;-56
2023/06/02 05:46:51;;;;;;;3.22;1.38;;;;;;;11.36;69.54;102137.78;5270590;23;20120;-57
2023/06/02 05:49:17;;;;;;;3.75;1.40;;;;;;;11.39;69.63;102132.69;5106966;23;20024;-57
2023/06/02 05:51:42;;;;;;;3.17;1.25;;;;;;;11.41;69.29;102131.94;4965170;28;20069;-57
2023/06/02 05:54:08;;;;;;;3.00;1.10;;;;;;;11.38;68.94;102138.72;5146850;23;20053;-56
2023/06/02 05:59:09;;;;;;;3.78;1.42;;;;;;;11.36;67.44;102143.00;4987754;23;20058;-57
2023/06/02 06:01:35;;;;;;;2.10;1.00;;;;;;;11.34;68.37;102142.03;4978777;28;20057;-57
2023/06/02 06:06:36;;;;;;;3.00;1.20;;;;;;;11.31;68.79;102142.78;5371715;23;20262;-57
2023/06/02 06:09:01;;;;;;;4.28;1.33;;;;;;;11.32;67.32;102144.56;5154209;23;20066;-57
2023/06/02 06:16:32;;;;;;;3.20;1.23;;;;;;;11.27;67.76;102141.78;5064233;23;20450;-57
2023/06/02 06:18:57;;;;;;;2.78;1.17;;;;;;;11.30;67.96;102149.72;5163424;23;20534;-56
2023/06/02 06:21:23;;;;;;;3.35;1.10;;;;;;;11.29;67.66;102139.22;5107269;23;20059;-57
2023/06/02 06:23:48;;;;;;;3.45;1.17;;;;;;;11.23;66.71;102136.38;5195149;23;20067;-58
2023/06/02 06:28:46;;;;;;;3.58;1.27;;;;;;;11.29;66.60;102137.50;5105605;23;20532;-57
2023/06/02 06:31:11;;;;;;;4.20;1.13;;;;;;;11.30;67.45;102139.28;4955580;28;20086;-57
2023/06/02 06:33:37;;;;;;;3.60;1.17;;;;;;;11.27;67.02;102151.34;4956518;28;20639;-57
2023/06/02 06:36:02;;;;;;;3.33;1.10;;;;;;;11.26;68.05;102145.22;4956055;28;20521;-57
2023/06/02 06:38:27;;;;;;;3.22;1.42;;;;;;;11.31;68.17;102146.31;5111557;23;20435;-57
2023/06/02 06:40:53;;;;;;;3.45;1.30;;;;;;;11.40;67.94;102155.34;5274597;23;20025;-57
2023/06/02 06:43:18;;;;;;;4.30;1.30;;;;;;;11.45;68.06;102153.81;5089397;23;20061;-57
2023/06/02 06:45:44;;;;;;;3.17;1.20;;;;;;;11.45;68.54;102145.97;5167694;23;20095;-58
2023/06/02 06:48:10;;;;;;;2.88;1.02;;;;;;;11.49;67.15;102150.50;5285915;23;20267;-57
2023/06/02 06:50:35;;;;;;;4.70;1.20;;;;;;;11.54;68.07;102141.13;5104484;23;20530;-57
2023/06/02 06:53:06;;;;;;;3.42;1.40;;;;;;;11.60;68.13;102148.31;5263278;23;20060;-57
2023/06/02 06:55:31;;;;;;;3.20;1.33;;;;;;;11.63;67.57;102149.34;5133921;23;20477;-57
2023/06/02 07:03:04;;;;;;;3.90;1.30;;;;;;;11.54;66.94;102148.06;5336555;23;20034;-57
2023/06/02 07:07:59;;;;;;;4.10;1.38;;;;;;;11.39;68.11;102151.84;5105457;23;20055;-57
2023/06/02 07:12:54;;;;;;;3.70;1.20;;;;;;;11.42;68.37;102144.13;5188805;23;20070;-56
2023/06/02 07:15:19;;;;;;;4.30;1.42;;;;;;;11.48;68.69;102144.41;4947541;28;20027;-57
2023/06/02 07:20:14;;;;;;;3.83;1.40;;;;;;;11.54;67.72;102151.56;4943360;28;20043;-57
2023/06/02 07:25:14;;;;;;;2.97;1.20;;;;;;;11.66;68.46;102157.28;5044123;23;20050;-96
2023/06/02 07:27:53;;;;;;;3.42;1.25;;;;;;;11.76;67.32;102155.94;4963493;28;20034;-96
2023/06/02 07:30:21;;;;;;;;;;;;;;;11.86;66.52;102162.44;4962048;28;20034;-96
2023/06/02 07:32:58;;;;;;;4.40;1.30;;;;;;;11.83;66.26;102160.59;4966297;28;19916;-96
2023/06/02 07:35:29;;;;;;;3.40;1.20;;;;;;;11.90;67.21;102158.22;4966404;28;20030;-96
2023/06/02 07:37:58;;;;;;;2.58;1.10;;;;;;;11.96;66.78;102163.69;4968471;28;20030;-96
2023/06/02 07:40:24;;;;;;;3.65;1.30;;;;;;;12.03;66.76;102165.72;4965816;28;20086;-96
2023/06/02 07:42:57;;;;;;;3.45;1.30;;;;;;;12.09;66.66;102159.84;4979746;28;20098;-96
2023/06/02 07:45:23;;;;;;;3.50;1.30;;;;;;;12.11;67.65;102155.59;4981435;28;20042;-96
2023/06/02 07:47:48;;;;;;;3.80;1.23;;;;;;;12.14;67.12;102155.69;4967077;28;20041;-96
2023/06/02 07:50:26;;;;;;;3.05;1.15;;;;;;;12.21;66.56;102152.50;4954858;28;20027;-96
2023/06/02 07:52:58;;;;;;;4.82;1.52;;;;;;;12.37;67.58;102160.88;4969510;28;20031;-96
2023/06/02 07:55:24;;;;;;;3.92;1.35;;;;;;;12.44;67.66;102152.44;4968040;28;20027;-96
2023/06/02 07:57:51;;;;;;;2.92;1.05;;;;;;;12.42;64.72;102144.53;4977491;28;20026;-96
2023/06/02 08:00:38;;;;;;;4.38;1.65;;;;;;;12.41;65.13;102147.09;4975148;28;20073;-96
2023/06/02 08:03:04;;;;;;;2.53;1.08;;;;;;;12.48;66.50;102149.09;4974927;28;20039;-96
2023/06/02 08:05:29;;;;;;;2.95;1.10;;;;;;;12.60;67.18;102146.03;5010516;23;20685;-57
2023/06/02 08:08:05;;;;;;;4.03;1.33;;;;;;;12.65;68.26;102144.50;5133641;23;20059;-96
2023/06/02 08:13:08;;;;;;;4.07;1.17;;;;;;;12.85;64.60;102150.44;5253461;23;20139;-96
2023/06/02 08:15:40;;;;;;;3.28;1.23;;;;;;;12.86;63.58;102145.25;4997179;28;20069;-96
2023/06/02 08:21:08;;;;;;;4.50;1.40;;;;;;;12.90;64.15;102151.47;5001343;28;20078;-96
2023/06/02 08:23:36;;;;;;;4.03;1.30;;;;;;;12.87;63.86;102149.66;4982242;28;20555;-96
2023/06/02 08:26:07;;;;;;;2.75;1.15;;;;;;;12.98;64.86;102151.78;4983642;28;20026;-96
2023/06/02 08:29:10;;;;;;;;;;;;;;;;;;;;;
2023/06/02 08:31:36;;;;;;;3.25;1.13;;;;;;;13.22;63.27;102156.94;4981572;28;20045;-96
2023/06/02 08:34:06;;;;;;;3.30;1.17;;;;;;;13.28;64.57;102153.63;4966780;28;20113;-96
2023/06/02 08:36:33;;;;;;;3.38;1.33;;;;;;;13.34;63.81;102160.00;4965939;28;20023;-96
2023/06/02 08:39:06;;;;;;;3.33;1.27;;;;;;;13.35;61.86;102155.66;4978948;28;20018;-96
2023/06/02 08:41:35;;;;;;;3.47;1.33;;;;;;;13.39;63.85;102161.03;4999490;23;20486;-57
2023/06/02 08:46:36;;;;;;;4.70;1.33;;;;;;;13.38;63.05;102155.75;5294280;23;20058;-57
2023/06/02 08:49:02;;;;;;;3.63;1.33;;;;;;;13.43;63.72;102145.47;5044883;23;20065;-96
2023/06/02 08:51:39;;;;;;;2.83;1.25;;;;;;;13.49;62.38;102149.16;4993854;28;20044;-96
2023/06/02 08:54:20;;;;;;;3.08;1.30;;;;;;;13.68;62.91;102148.00;4979917;28;20093;-96
2023/06/02 08:56:49;;;;;;;3.47;1.20;;;;;;;13.88;62.47;102147.75;4974251;23;20050;-64
2023/06/02 08:59:19;;;;;;;4.30;1.37;;;;;;;13.96;63.51;102147.97;5088952;23;20146;-96
2023/06/02 09:01:48;;;;;;;5.75;1.50;;;;;;;14.14;59.64;102137.19;4975555;28;20037;-96
2023/06/02 09:04:17;;;;;;;4.18;1.58;;;;;;;14.50;63.41;102136.47;4978147;28;20022;-96
2023/06/02 09:07:11;;;;;;;3.17;1.20;;;;;;;14.65;59.99;102131.66;4983459;28;20030;-96
2023/06/02 09:09:57;;;;;;;3.28;1.30;;;;;;;14.67;59.80;102136.94;4981048;28;20032;-96
2023/06/02 09:12:25;;;;;;;2.42;1.10;;;;;;;14.88;62.81;102126.16;4979971;28;20042;-96
2023/06/02 09:15:20;;;;;;;3.50;1.25;;;;;;;15.25;59.96;102135.88;4997291;28;21112;-96
2023/06/02 09:17:51;;;;;;;3.38;1.27;;;;;;;15.50;58.59;102136.47;4978479;28;20109;-96
2023/06/02 09:20:48;;;;;;;;;;;;;;;;;;;;;
2023/06/02 09:23:14;;;;;;;3.17;1.25;;;;;;;16.08;59.67;102133.44;4997048;28;20102;-96
2023/06/02 09:25:45;;;;;;;4.53;1.40;;;;;;;16.10;54.90;102129.97;4977974;28;20066;-96
2023/06/02 09:28:13;;;;;;;2.72;1.23;;;;;;;16.06;56.20;102120.25;4993852;28;20030;-96
2023/06/02 09:31:15;;;;;;;3.20;1.40;;;;;;;16.12;56.92;102128.28;4979440;28;20034;-96
2023/06/02 09:34:27;;;;;;;4.50;1.40;;;;;;;16.17;55.33;102125.72;4990487;28;20038;-96
2023/06/02 09:37:20;;;;;;;3.65;1.25;;;;;;;16.39;57.05;102120.91;4972658;28;20671;-96
2023/06/02 09:42:56;;;;;;;4.77;1.30;;;;;;;16.52;54.93;102118.56;4992281;28;20042;-96
2023/06/02 09:45:30;;;;;;;3.60;1.40;;;;;;;16.52;54.59;102123.84;4979653;28;20029;-96
2023/06/02 09:48:16;;;;;;;3.55;1.40;;;;;;;16.49;52.22;102122.88;4972727;28;20026;-96
2023/06/02 09:53:52;;;;;;;5.15;1.45;;;;;;;16.76;55.68;102122.50;4973256;28;20042;-96
2023/06/02 09:56:38;;;;;;;5.57;1.50;;;;;;;17.32;55.07;102118.22;4962241;28;20094;-96
2023/06/02 09:59:13;;;;;;;3.92;1.40;;;;;;;17.47;51.83;102109.69;4980000;28;20026;-96
2023/06/02 10:02:23;;;;;;;4.00;2.00;;;;;;;17.69;50.38;102118.81;4939393;29;20092;-96
2023/06/02 10:04:51;;;;;;;5.40;1.50;;;;;;;17.56;50.72;102120.38;4935409;29;20024;-96
2023/06/02 10:07:41;;;;;;;3.47;1.60;;;;;;;17.44;54.99;102122.78;5009689;23;20059;-96
2023/06/02 10:13:54;;;;;;;2.97;1.30;;;;;;;17.96;53.34;102106.88;4990820;28;20115;-96
2023/06/02 10:16:54;;;;;;;3.22;1.40;;;;;;;18.38;54.97;102105.69;4979786;28;20070;-96
2023/06/02 10:20:15;;;;;;;4.68;1.60;;;;;;;18.52;53.73;102109.31;4973459;28;20050;-96
2023/06/02 10:23:20;;;;;;;3.78;1.42;;;;;;;18.25;51.92;102104.63;4975471;28;20054;-96
2023/06/02 10:29:25;;;;;;;4.03;1.45;;;;;;;17.83;50.21;102105.78;4886809;29;20076;-96
2023/06/02 10:31:57;;;;;;;2.95;1.58;;;;;;;17.92;54.31;102105.97;4941369;29;20070;-96
2023/06/02 10:34:37;;;;;;;3.17;1.50;;;;;;;17.64;52.24;102116.09;4952419;28;20042;-96
2023/06/02 10:37:05;;;;;;;2.97;1.40;;;;;;;17.39;52.31;102120.09;4951322;28;20035;-96
2023/06/02 10:39:46;;;;;;;3.22;1.52;;;;;;;17.54;55.05;102114.19;4923871;28;20035;-96
2023/06/02 10:42:13;;;;;;;2.60;1.23;;;;;;;17.67;54.77;102115.25;4927547;29;20568;-95
2023/06/02 10:45:35;;;;;;;3.80;1.40;;;;;;;17.84;55.02;102108.47;4950332;28;20023;-96
2023/06/02 10:48:35;;;;;;;4.03;1.40;;;;;;;17.90;54.80;102100.69;4933656;29;20034;-96
2023/06/02 10:51:32;;;;;;;3.20;1.40;;;;;;;17.86;53.95;102106.75;4946670;28;20043;-96
2023/06/02 10:54:22;;;;;;;4.10;1.52;;;;;;;17.67;52.39;102107.34;4935532;29;20073;-97
2023/06/02 10:56:47;;;;;;;4.55;1.50;;;;;;;17.79;53.83;102104.88;5082699;23;20055;-59
2023/06/02 11:01:55;;;;;;;3.47;1.58;;;;;;;18.01;55.15;102107.84;5270449;23;20062;-59
2023/06/02 11:07:18;;;;;;;4.07;1.67;;;;;;;18.20;52.69;102111.59;5282769;23;20047;-59
2023/06/02 11:09:45;;;;;;;3.83;1.50;;;;;;;17.91;51.83;102101.56;5085069;23;20109;-59
2023/06/02 11:12:11;;;;;;;3.83;1.50;;;;;;;17.72;55.56;102113.56;5252318;23;20070;-59
2023/06/02 11:17:27;;;;;;;3.83;1.60;;;;;;;17.88;54.30;102104.13;5125283;23;20230;-59
2023/06/02 11:19:54;;;;;;;4.20;1.60;;;;;;;17.97;55.10;102106.03;5150240;23;20062;-59
2023/06/02 11:22:19;;;;;;;4.47;1.73;;;;;;;18.01;55.12;102103.44;5151349;23;20036;-60
2023/06/02 11:24:46;;;;;;;4.20;1.70;;;;;;;18.15;53.32;102108.03;5168866;23;20714;-59
2023/06/02 11:27:11;;;;;;;5.20;1.80;;;;;;;18.20;54.09;102107.19;5070815;23;20017;-59
2023/06/02 11:29:36;;;;;;;3.28;1.50;;;;;;;17.95;54.26;102098.09;5485870;23;20055;-59
2023/06/02 11:32:05;;;;;;;3.08;1.50;;;;;;;17.86;55.83;102098.84;5041795;23;20534;-60
2023/06/02 11:34:31;;;;;;;3.63;1.48;;;;;;;18.03;56.91;102103.47;5316911;23;20063;-59
2023/06/02 11:39:56;;;;;;;4.50;1.77;;;;;;;18.16;52.97;102100.13;5030428;23;20510;-65
2023/06/02 11:42:52;;;;;;;3.63;1.52;;;;;;;18.53;55.12;102107.59;5058375;23;20503;-59
2023/06/02 11:48:05;;;;;;;3.63;1.80;;;;;;;18.85;53.24;102105.25;5141365;23;20078;-59
2023/06/02 11:53:13;;;;;;;5.03;1.80;;;;;;;19.62;52.42;102095.34;5106078;23;20066;-59
2023/06/02 11:55:39;;;;;;;4.93;1.55;;;;;;;19.70;52.14;102100.66;5267462;23;20536;-60
2023/06/02 12:00:38;;;;;;;8.75;2.50;;;;;;;20.13;53.82;102095.63;5298861;23;20101;-60
2023/06/02 12:03:07;;;;;;;5.70;2.10;;;;;;;20.16;53.21;102094.75;5247368;23;20034;-59
2023/06/02 12:05:36;;;;;;;3.30;1.70;;;;;;;20.17;48.58;102091.22;5169321;23;20046;-59
2023/06/02 12:08:09;;;;;;;;;;;;;;;20.24;48.71;102084.19;5145312;23;20882;-60
2023/06/02 12:10:35;;;;;;;4.68;1.80;;;;;;;20.10;51.65;102086.78;5328567;23;19926;-59
2023/06/02 12:13:00;;;;;;;3.47;1.52;;;;;;;20.23;50.72;102085.94;5154858;23;20062;-60
2023/06/02 12:20:41;;;;;;;6.68;2.22;;;;;;;20.05;48.08;102096.47;5297854;23;20075;-60
2023/06/02 12:23:08;;;;;;;3.58;1.50;;;;;;;19.61;49.49;102084.72;5095522;23;20025;-60
2023/06/02 12:25:33;;;;;;;3.53;1.90;;;;;;;19.56;51.26;102084.72;5143858;23;20573;-66
2023/06/02 12:28:12;;;;;;;4.40;1.80;;;;;;;19.40;51.46;102096.06;5366532;23;20055;-59
2023/06/02 12:30:37;;;;;;;4.28;1.83;;;;;;;19.27;50.40;102085.38;5168260;23;20054;-60
2023/06/02 12:33:10;;;;;;;3.70;1.90;;;;;;;19.07;50.41;102089.63;5155535;23;20029;-60
2023/06/02 12:35:37;;;;;;;3.83;1.85;;;;;;;19.27;51.98;102081.88;5156319;23;20067;-59
2023/06/02 12:38:03;;;;;;;3.67;1.77;;;;;;;19.58;54.92;102082.06;5097906;23;20081;-59
2023/06/02 12:40:29;;;;;;;5.13;1.95;;;;;;;19.82;51.81;102073.44;5371849;23;20108;-59
2023/06/02 12:42:54;;;;;;;4.22;1.90;;;;;;;20.09;54.54;102071.78;5247701;23;20107;-59
2023/06/02 12:45:20;;;;;;;3.92;2.10;;;;;;;20.53;54.57;102073.66;5175626;23;20076;-59
2023/06/02 12:47:45;;;;;;;5.15;2.10;;;;;;;20.83;52.75;102071.97;5157898;23;20059;-60
2023/06/02 12:50:11;;;;;;;3.25;1.80;;;;;;;20.93;50.40;102073.75;5230679;23;20997;-59
2023/06/02 12:52:36;;;;;;;3.65;1.80;;;;;;;21.18;49.14;102069.31;5311515;23;20071;-59
2023/06/02 12:55:06;;;;;;;4.95;1.88;;;;;;;21.15;50.72;102076.41;5191116;23;20050;-60
2023/06/02 13:02:36;;;;;;;4.63;1.85;;;;;;;20.67;48.29;102071.97;5108758;23;20070;-60
2023/06/02 13:05:04;;;;;;;2.95;1.70;;;;;;;20.67;49.64;102071.97;5132931;23;20054;-59
2023/06/02 13:07:30;;;;;;;5.10;2.10;;;;;;;20.45;51.02;102070.09;4978371;28;20030;-60
2023/06/02 13:09:55;;;;;;;4.63;2.20;;;;;;;20.37;50.05;102066.59;4977312;28;20057;-60
2023/06/02 13:12:23;;;;;;;4.43;2.10;;;;;;;20.02;48.68;102060.28;4977879;28;20522;-60
2023/06/02 13:14:49;;;;;;;3.60;2.00;;;;;;;19.28;48.80;102065.16;4976943;28;20085;-59
2023/06/02 13:17:14;;;;;;;3.58;1.67;;;;;;;19.52;54.91;102055.59;4976778;28;20505;-60
2023/06/02 13:19:41;;;;;;;3.25;1.92;;;;;;;20.07;53.18;102066.47;4977310;28;20026;-60
2023/06/02 13:22:07;;;;;;;3.90;1.80;;;;;;;20.62;51.05;102060.47;4976637;28;20031;-60
2023/06/02 13:24:32;;;;;;;3.20;1.63;;;;;;;21.07;52.34;102049.00;4980321;28;20022;-59
2023/06/02 13:26:57;;;;;;;4.32;1.75;;;;;;;20.88;46.90;102051.66;4981757;28;20026;-60
2023/06/02 13:29:23;;;;;;;3.53;1.70;;;;;;;20.49;50.70;102056.00;4980408;28;20476;-59
2023/06/02 13:31:48;;;;;;;4.55;1.80;;;;;;;20.80;51.16;102056.97;4980738;28;20030;-59
2023/06/02 13:34:13;;;;;;;5.22;2.10;;;;;;;20.92;47.05;102050.78;4980466;28;20045;-60
2023/06/02 13:36:38;;;;;;;3.80;1.88;;;;;;;20.92;50.70;102056.06;4978850;28;20042;-60
2023/06/02 13:39:04;;;;;;;3.45;1.77;;;;;;;20.71;48.08;102058.72;4980352;28;20050;-60
2023/06/02 13:41:29;;;;;;;3.58;1.92;;;;;;;20.64;52.28;102057.81;4979839;28;20026;-60
2023/06/02 13:43:57;;;;;;;4.03;1.92;;;;;;;20.63;46.96;102051.59;4979424;28;20058;-59
2023/06/02 13:46:22;;;;;;;3.70;1.88;;;;;;;20.71;52.33;102056.06;4979745;28;20076;-59
2023/06/02 13:48:47;;;;;;;5.15;1.90;;;;;;;21.14;51.47;102045.47;4978921;28;20046;-59
2023/06/02 13:51:12;;;;;;;3.63;1.80;;;;;;;21.20;50.02;102050.75;4978827;28;20048;-60
2023/06/02 13:53:38;;;;;;;3.63;1.67;;;;;;;21.34;48.34;102051.63;4979275;28;20041;-59
2023/06/02 13:56:03;;;;;;;4.93;1.90;;;;;;;21.40;51.79;102047.19;4977667;28;20034;-61
2023/06/02 13:58:34;;;;;;;3.20;1.67;;;;;;;21.51;50.09;102046.31;4975995;28;20034;-59
2023/06/02 14:03:28;;;;;;;3.65;1.80;;;;;;;21.55;49.30;102041.88;4975434;28;20053;-60
2023/06/02 14:05:53;;;;;;;3.38;1.80;;;;;;;21.62;49.52;102054.22;4979551;28;20042;-59
2023/06/02 14:08:19;;;;;;;4.35;2.08;;;;;;;21.82;50.34;102050.63;4980099;28;20030;-60
2023/06/02 14:10:44;;;;;;;3.67;1.80;;;;;;;21.57;45.87;102055.16;4978912;28;20494;-59
2023/06/02 14:13:11;;;;;;;4.15;1.98;;;;;;;20.78;45.27;102057.84;4977893;28;20030;-60
2023/06/02 14:15:36;;;;;;;3.10;1.85;;;;;;;20.29;48.77;102051.56;4979844;28;20479;-59
2023/06/02 14:18:01;;;;;;;4.85;2.15;;;;;;;20.71;55.02;102048.13;4980533;28;20528;-60